sensor_id;sensor_type;location;lat;lon;timestamp;P1;durP1;ratioP1;P2;durP2;ratioP2
66761;SDS011;53672;48.176;16.338;2022-12-04T00:01:16;20.17;;;11.05;;
66761;SDS011;53672;48.176;16.338;2022-12-04T00:06:18;18.92;;;11.38;;
66761;SDS011;53672;48.176;16.338;2022-12-04T00:11:20;18.33;;;10.97;;
66761;SDS011;53672;48.176;16.338;2022-12-04T00:16:25;18.83;;;10.63;;
66761;SDS011;53672;48.176;16.338;2022-12-04T00:26:11;19.67;;;11.15;;
66761;SDS011;53672;48.176;16.338;2022-12-04T00:31:13;19.63;;;10.80;;
66761;SDS011;53672;48.176;16.338;2022-12-04T00:36:16;18.30;;;11.50;;
66761;SDS011;53672;48.176;16.338;2022-12-04T00:41:19;19.85;;;11.48;;
66761;SDS011;53672;48.176;16.338;2022-12-04T00:46:21;19.30;;;10.60;;
66761;SDS011;53672;48.176;16.338;2022-12-04T00:51:23;19.58;;;10.60;;
66761;SDS011;53672;48.176;16.338;2022-12-04T00:56:26;18.93;;;10.60;;
66761;SDS011;53672;48.176;16.338;2022-12-04T01:01:28;17.33;;;10.00;;
66761;SDS011;53672;48.176;16.338;2022-12-04T01:06:30;17.92;;;10.55;;
66761;SDS011;53672;48.176;16.338;2022-12-04T01:11:33;17.40;;;9.43;;
66761;SDS011;53672;48.176;16.338;2022-12-04T01:16:34;18.20;;;9.38;;
66761;SDS011;53672;48.176;16.338;2022-12-04T01:21:36;17.87;;;9.93;;
66761;SDS011;53672;48.176;16.338;2022-12-04T01:26:39;17.55;;;9.73;;
66761;SDS011;53672;48.176;16.338;2022-12-04T01:31:39;18.40;;;9.77;;
66761;SDS011;53672;48.176;16.338;2022-12-04T01:36:40;17.70;;;9.60;;
66761;SDS011;53672;48.176;16.338;2022-12-04T01:41:41;17.92;;;10.00;;
66761;SDS011;53672;48.176;16.338;2022-12-04T01:46:43;17.10;;;9.50;;
66761;SDS011;53672;48.176;16.338;2022-12-04T01:51:45;16.33;;;9.32;;
66761;SDS011;53672;48.176;16.338;2022-12-04T01:56:50;16.77;;;9.30;;
66761;SDS011;53672;48.176;16.338;2022-12-04T02:01:54;16.10;;;9.60;;
66761;SDS011;53672;48.176;16.338;2022-12-04T02:06:58;16.67;;;9.50;;
66761;SDS011;53672;48.176;16.338;2022-12-04T02:12:02;15.43;;;9.10;;
66761;SDS011;53672;48.176;16.338;2022-12-04T02:17:12;15.70;;;8.77;;
66761;SDS011;53672;48.176;16.338;2022-12-04T02:22:23;16.35;;;8.82;;
66761;SDS011;53672;48.176;16.338;2022-12-04T02:27:55;16.42;;;9.27;;
66761;SDS011;53672;48.176;16.338;2022-12-04T02:33:04;16.98;;;9.10;;
66761;SDS011;53672;48.176;16.338;2022-12-04T02:38:10;14.70;;;8.45;;
66761;SDS011;53672;48.176;16.338;2022-12-04T02:43:17;15.13;;;8.40;;
66761;SDS011;53672;48.176;16.338;2022-12-04T02:48:23;14.05;;;8.77;;
66761;SDS011;53672;48.176;16.338;2022-12-04T02:53:26;15.88;;;8.90;;
66761;SDS011;53672;48.176;16.338;2022-12-04T02:58:32;15.90;;;8.75;;
66761;SDS011;53672;48.176;16.338;2022-12-04T03:03:36;14.30;;;8.45;;
66761;SDS011;53672;48.176;16.338;2022-12-04T03:08:38;15.70;;;8.80;;
66761;SDS011;53672;48.176;16.338;2022-12-04T03:13:45;14.57;;;8.65;;
66761;SDS011;53672;48.176;16.338;2022-12-04T03:18:49;14.47;;;8.17;;
66761;SDS011;53672;48.176;16.338;2022-12-04T03:23:55;15.15;;;8.55;;
66761;SDS011;53672;48.176;16.338;2022-12-04T03:29:04;13.98;;;8.23;;
66761;SDS011;53672;48.176;16.338;2022-12-04T03:34:08;14.20;;;8.20;;
66761;SDS011;53672;48.176;16.338;2022-12-04T03:39:13;14.60;;;8.35;;
66761;SDS011;53672;48.176;16.338;2022-12-04T03:44:20;13.90;;;8.20;;
66761;SDS011;53672;48.176;16.338;2022-12-04T03:49:24;14.07;;;8.05;;
66761;SDS011;53672;48.176;16.338;2022-12-04T03:54:32;15.00;;;8.52;;
66761;SDS011;53672;48.176;16.338;2022-12-04T03:59:39;13.43;;;7.70;;
66761;SDS011;53672;48.176;16.338;2022-12-04T04:04:47;15.48;;;8.68;;
66761;SDS011;53672;48.176;16.338;2022-12-04T04:09:52;14.43;;;8.33;;
66761;SDS011;53672;48.176;16.338;2022-12-04T04:14:59;15.25;;;8.43;;
66761;SDS011;53672;48.176;16.338;2022-12-04T04:20:04;13.90;;;8.02;;
66761;SDS011;53672;48.176;16.338;2022-12-04T04:25:08;15.57;;;8.00;;
66761;SDS011;53672;48.176;16.338;2022-12-04T04:30:12;13.52;;;7.63;;
66761;SDS011;53672;48.176;16.338;2022-12-04T04:35:14;14.83;;;8.70;;
66761;SDS011;53672;48.176;16.338;2022-12-04T04:40:21;13.25;;;7.65;;
66761;SDS011;53672;48.176;16.338;2022-12-04T04:45:29;13.68;;;8.07;;
66761;SDS011;53672;48.176;16.338;2022-12-04T04:50:34;12.80;;;7.23;;
66761;SDS011;53672;48.176;16.338;2022-12-04T04:55:37;12.93;;;7.40;;
66761;SDS011;53672;48.176;16.338;2022-12-04T05:00:39;13.73;;;7.70;;
66761;SDS011;53672;48.176;16.338;2022-12-04T05:05:43;13.15;;;7.38;;
66761;SDS011;53672;48.176;16.338;2022-12-04T05:10:44;13.50;;;7.83;;
66761;SDS011;53672;48.176;16.338;2022-12-04T05:15:55;13.47;;;7.87;;
66761;SDS011;53672;48.176;16.338;2022-12-04T05:20:56;13.63;;;7.75;;
66761;SDS011;53672;48.176;16.338;2022-12-04T05:25:57;13.00;;;7.63;;
66761;SDS011;53672;48.176;16.338;2022-12-04T05:31:01;13.73;;;7.70;;
66761;SDS011;53672;48.176;16.338;2022-12-04T05:36:03;13.00;;;7.50;;
66761;SDS011;53672;48.176;16.338;2022-12-04T05:41:05;13.17;;;7.30;;
66761;SDS011;53672;48.176;16.338;2022-12-04T05:46:07;13.07;;;7.13;;
66761;SDS011;53672;48.176;16.338;2022-12-04T05:51:09;12.90;;;7.37;;
66761;SDS011;53672;48.176;16.338;2022-12-04T05:56:09;12.52;;;7.43;;
66761;SDS011;53672;48.176;16.338;2022-12-04T06:01:12;12.50;;;7.07;;
66761;SDS011;53672;48.176;16.338;2022-12-04T06:06:16;12.07;;;7.13;;
66761;SDS011;53672;48.176;16.338;2022-12-04T06:11:18;12.30;;;7.10;;
66761;SDS011;53672;48.176;16.338;2022-12-04T06:16:23;12.90;;;7.55;;
66761;SDS011;53672;48.176;16.338;2022-12-04T06:21:26;12.17;;;6.80;;
66761;SDS011;53672;48.176;16.338;2022-12-04T06:26:28;12.15;;;7.03;;
66761;SDS011;53672;48.176;16.338;2022-12-04T06:31:29;12.50;;;6.70;;
66761;SDS011;53672;48.176;16.338;2022-12-04T06:36:30;12.57;;;7.50;;
66761;SDS011;53672;48.176;16.338;2022-12-04T06:41:31;14.03;;;7.23;;
66761;SDS011;53672;48.176;16.338;2022-12-04T06:46:33;11.30;;;6.63;;
66761;SDS011;53672;48.176;16.338;2022-12-04T06:51:34;12.15;;;6.80;;
66761;SDS011;53672;48.176;16.338;2022-12-04T06:56:36;11.40;;;6.90;;
66761;SDS011;53672;48.176;16.338;2022-12-04T07:01:38;12.87;;;7.30;;
66761;SDS011;53672;48.176;16.338;2022-12-04T07:06:38;20.35;;;11.98;;
66761;SDS011;53672;48.176;16.338;2022-12-04T07:11:39;16.47;;;9.53;;
66761;SDS011;53672;48.176;16.338;2022-12-04T07:16:42;22.15;;;12.98;;
66761;SDS011;53672;48.176;16.338;2022-12-04T07:21:42;21.52;;;13.00;;
66761;SDS011;53672;48.176;16.338;2022-12-04T07:26:43;19.90;;;12.18;;
66761;SDS011;53672;48.176;16.338;2022-12-04T07:31:45;21.05;;;12.30;;
66761;SDS011;53672;48.176;16.338;2022-12-04T07:36:46;20.20;;;11.70;;
66761;SDS011;53672;48.176;16.338;2022-12-04T07:41:46;18.60;;;11.90;;
66761;SDS011;53672;48.176;16.338;2022-12-04T07:46:48;19.13;;;11.20;;
66761;SDS011;53672;48.176;16.338;2022-12-04T07:51:49;17.50;;;10.85;;
66761;SDS011;53672;48.176;16.338;2022-12-04T07:56:49;17.73;;;10.27;;
66761;SDS011;53672;48.176;16.338;2022-12-04T08:01:51;16.23;;;10.37;;
66761;SDS011;53672;48.176;16.338;2022-12-04T08:06:51;16.92;;;10.35;;
66761;SDS011;53672;48.176;16.338;2022-12-04T08:11:52;16.13;;;10.50;;
66761;SDS011;53672;48.176;16.338;2022-12-04T08:16:54;17.33;;;11.20;;
66761;SDS011;53672;48.176;16.338;2022-12-04T08:21:54;16.38;;;9.85;;
66761;SDS011;53672;48.176;16.338;2022-12-04T08:26:55;16.17;;;10.10;;
66761;SDS011;53672;48.176;16.338;2022-12-04T08:31:56;17.23;;;10.87;;
66761;SDS011;53672;48.176;16.338;2022-12-04T08:36:57;15.53;;;10.47;;
66761;SDS011;53672;48.176;16.338;2022-12-04T08:41:57;16.63;;;10.55;;
66761;SDS011;53672;48.176;16.338;2022-12-04T08:46:59;14.63;;;9.30;;
66761;SDS011;53672;48.176;16.338;2022-12-04T08:52:00;16.07;;;10.10;;
66761;SDS011;53672;48.176;16.338;2022-12-04T08:57:00;16.27;;;10.20;;
66761;SDS011;53672;48.176;16.338;2022-12-04T09:02:02;16.98;;;9.98;;
66761;SDS011;53672;48.176;16.338;2022-12-04T09:07:03;14.98;;;9.73;;
66761;SDS011;53672;48.176;16.338;2022-12-04T09:12:04;15.40;;;9.52;;
66761;SDS011;53672;48.176;16.338;2022-12-04T09:17:07;15.43;;;9.23;;
66761;SDS011;53672;48.176;16.338;2022-12-04T09:22:09;15.63;;;9.50;;
66761;SDS011;53672;48.176;16.338;2022-12-04T09:27:11;14.23;;;9.33;;
66761;SDS011;53672;48.176;16.338;2022-12-04T09:32:13;14.70;;;9.45;;
66761;SDS011;53672;48.176;16.338;2022-12-04T09:37:14;14.98;;;9.43;;
66761;SDS011;53672;48.176;16.338;2022-12-04T09:42:26;13.63;;;8.65;;
66761;SDS011;53672;48.176;16.338;2022-12-04T09:47:38;14.00;;;8.47;;
66761;SDS011;53672;48.176;16.338;2022-12-04T09:52:43;14.05;;;8.73;;
66761;SDS011;53672;48.176;16.338;2022-12-04T09:57:53;14.80;;;9.23;;
66761;SDS011;53672;48.176;16.338;2022-12-04T10:02:58;14.73;;;8.90;;
66761;SDS011;53672;48.176;16.338;2022-12-04T10:08:04;13.30;;;8.57;;
66761;SDS011;53672;48.176;16.338;2022-12-04T10:13:15;15.83;;;9.20;;
66761;SDS011;53672;48.176;16.338;2022-12-04T10:18:30;15.77;;;8.98;;
66761;SDS011;53672;48.176;16.338;2022-12-04T10:23:47;15.80;;;8.50;;
66761;SDS011;53672;48.176;16.338;2022-12-04T10:28:55;14.70;;;8.33;;
66761;SDS011;53672;48.176;16.338;2022-12-04T10:34:02;15.00;;;8.45;;
66761;SDS011;53672;48.176;16.338;2022-12-04T10:39:09;16.57;;;8.77;;
66761;SDS011;53672;48.176;16.338;2022-12-04T10:44:18;13.80;;;7.80;;
66761;SDS011;53672;48.176;16.338;2022-12-04T10:49:21;18.48;;;8.60;;
66761;SDS011;53672;48.176;16.338;2022-12-04T10:54:26;20.17;;;8.40;;
66761;SDS011;53672;48.176;16.338;2022-12-04T11:05:00;15.23;;;7.67;;
66761;SDS011;53672;48.176;16.338;2022-12-04T11:10:03;13.68;;;7.18;;
66761;SDS011;53672;48.176;16.338;2022-12-04T11:15:11;20.80;;;7.53;;
66761;SDS011;53672;48.176;16.338;2022-12-04T11:20:16;16.60;;;7.23;;
66761;SDS011;53672;48.176;16.338;2022-12-04T11:25:18;16.30;;;7.10;;
66761;SDS011;53672;48.176;16.338;2022-12-04T11:30:24;15.27;;;7.83;;
66761;SDS011;53672;48.176;16.338;2022-12-04T11:35:31;15.20;;;7.28;;
66761;SDS011;53672;48.176;16.338;2022-12-04T11:40:32;16.33;;;7.10;;
66761;SDS011;53672;48.176;16.338;2022-12-04T11:45:33;14.53;;;7.30;;
66761;SDS011;53672;48.176;16.338;2022-12-04T11:50:38;18.93;;;7.97;;
66761;SDS011;53672;48.176;16.338;2022-12-04T11:55:49;25.60;;;8.27;;
66761;SDS011;53672;48.176;16.338;2022-12-04T12:01:17;19.33;;;9.03;;
66761;SDS011;53672;48.176;16.338;2022-12-04T12:06:30;19.25;;;8.45;;
66761;SDS011;53672;48.176;16.338;2022-12-04T12:11:34;18.00;;;8.75;;
66761;SDS011;53672;48.176;16.338;2022-12-04T12:16:43;19.10;;;9.40;;
66761;SDS011;53672;48.176;16.338;2022-12-04T12:21:54;19.90;;;8.38;;
66761;SDS011;53672;48.176;16.338;2022-12-04T12:27:06;19.13;;;8.70;;
66761;SDS011;53672;48.176;16.338;2022-12-04T12:32:25;22.33;;;10.75;;
66761;SDS011;53672;48.176;16.338;2022-12-04T12:37:42;40.83;;;19.00;;
66761;SDS011;53672;48.176;16.338;2022-12-04T12:42:50;67.03;;;33.83;;
66761;SDS011;53672;48.176;16.338;2022-12-04T12:47:55;69.32;;;35.67;;
66761;SDS011;53672;48.176;16.338;2022-12-04T12:53:06;64.90;;;34.03;;
66761;SDS011;53672;48.176;16.338;2022-12-04T12:58:13;64.47;;;33.28;;
66761;SDS011;53672;48.176;16.338;2022-12-04T13:03:23;57.33;;;31.05;;
66761;SDS011;53672;48.176;16.338;2022-12-04T13:08:31;56.53;;;30.93;;
66761;SDS011;53672;48.176;16.338;2022-12-04T13:13:38;63.08;;;30.90;;
66761;SDS011;53672;48.176;16.338;2022-12-04T13:18:42;53.57;;;29.53;;
66761;SDS011;53672;48.176;16.338;2022-12-04T13:23:51;55.35;;;29.58;;
66761;SDS011;53672;48.176;16.338;2022-12-04T13:29:02;58.33;;;27.58;;
66761;SDS011;53672;48.176;16.338;2022-12-04T13:34:22;46.53;;;26.47;;
66761;SDS011;53672;48.176;16.338;2022-12-04T13:45:22;49.83;;;25.03;;
66761;SDS011;53672;48.176;16.338;2022-12-04T13:50:27;45.75;;;24.73;;
66761;SDS011;53672;48.176;16.338;2022-12-04T13:55:30;44.00;;;23.80;;
66761;SDS011;53672;48.176;16.338;2022-12-04T14:00:34;43.57;;;23.50;;
66761;SDS011;53672;48.176;16.338;2022-12-04T14:05:39;46.88;;;23.27;;
66761;SDS011;53672;48.176;16.338;2022-12-04T14:10:41;43.97;;;23.43;;
66761;SDS011;53672;48.176;16.338;2022-12-04T14:15:44;43.70;;;22.45;;
66761;SDS011;53672;48.176;16.338;2022-12-04T14:20:55;41.50;;;21.38;;
66761;SDS011;53672;48.176;16.338;2022-12-04T14:25:58;40.87;;;20.93;;
66761;SDS011;53672;48.176;16.338;2022-12-04T14:31:05;40.70;;;20.40;;
66761;SDS011;53672;48.176;16.338;2022-12-04T14:36:17;37.67;;;19.48;;
66761;SDS011;53672;48.176;16.338;2022-12-04T14:41:23;32.50;;;17.75;;
66761;SDS011;53672;48.176;16.338;2022-12-04T14:46:29;35.00;;;17.27;;
66761;SDS011;53672;48.176;16.338;2022-12-04T14:51:36;39.30;;;16.95;;
66761;SDS011;53672;48.176;16.338;2022-12-04T14:56:45;32.53;;;16.90;;
66761;SDS011;53672;48.176;16.338;2022-12-04T15:01:57;31.60;;;15.68;;
66761;SDS011;53672;48.176;16.338;2022-12-04T15:06:58;30.20;;;15.55;;
66761;SDS011;53672;48.176;16.338;2022-12-04T15:11:59;40.47;;;14.18;;
66761;SDS011;53672;48.176;16.338;2022-12-04T15:17:13;30.30;;;14.05;;
66761;SDS011;53672;48.176;16.338;2022-12-04T15:22:17;24.83;;;12.33;;
66761;SDS011;53672;48.176;16.338;2022-12-04T15:27:23;26.95;;;12.82;;
66761;SDS011;53672;48.176;16.338;2022-12-04T15:32:27;26.17;;;12.70;;
66761;SDS011;53672;48.176;16.338;2022-12-04T15:37:31;25.02;;;12.82;;
66761;SDS011;53672;48.176;16.338;2022-12-04T15:42:33;25.20;;;12.65;;
66761;SDS011;53672;48.176;16.338;2022-12-04T15:47:49;26.60;;;12.23;;
66761;SDS011;53672;48.176;16.338;2022-12-04T15:52:56;23.45;;;11.35;;
66761;SDS011;53672;48.176;16.338;2022-12-04T15:58:00;22.55;;;11.38;;
66761;SDS011;53672;48.176;16.338;2022-12-04T16:03:06;21.70;;;10.95;;
66761;SDS011;53672;48.176;16.338;2022-12-04T16:08:23;21.65;;;10.60;;
66761;SDS011;53672;48.176;16.338;2022-12-04T16:13:29;21.00;;;10.53;;
66761;SDS011;53672;48.176;16.338;2022-12-04T16:18:37;18.98;;;10.10;;
66761;SDS011;53672;48.176;16.338;2022-12-04T16:23:39;20.13;;;9.77;;
66761;SDS011;53672;48.176;16.338;2022-12-04T16:28:40;21.85;;;10.00;;
66761;SDS011;53672;48.176;16.338;2022-12-04T16:33:43;21.42;;;10.10;;
66761;SDS011;53672;48.176;16.338;2022-12-04T16:38:44;24.73;;;14.18;;
66761;SDS011;53672;48.176;16.338;2022-12-04T16:43:47;24.63;;;13.00;;
66761;SDS011;53672;48.176;16.338;2022-12-04T16:48:54;23.00;;;11.37;;
